^^
WestSenecaWeather Station Historical Data
 
Daily Summary for November 21, 2017 Units:  English    Metric   Both
Daily Weekly Monthly Yearly Custom
  Current: High: Low: Average:
Temperature: 53.8 °F 53.8 °F 39.7 °F 44.1 °F
Dew Point: 27.4 °F 27.6 °F 23.0 °F 24.9 °F
Humidity: 36% 58% 35% 47%
Wind Speed: 18.0mph 25.3mph 6.0mph 13.5mph
Wind Gust: 18.0mph 27.0mph - -
WindNW - - NW
Pressure: 29.73 in 29.89 in 29.73 in -
Precipitation: 0.00 in      
Historical Graphs
 
 
Tabular Data for November 21, 2017
Time Temperature Dew Point Pressure Wind Wind Speed Wind Gust Humidity Rainfall Rate (Hourly) solar
00:09 39.8 °F 26.2 °F 29.89 in NNW 8.1 mph 8.1 mph 58% 0.00 in 0.0 W/m2
00:14 39.8 °F 26.2 °F 29.89 in NNW 8.1 mph 8.1 mph 58% 0.00 in 0.0 W/m2
00:19 39.8 °F 26.2 °F 29.88 in North 8.1 mph 8.1 mph 58% 0.00 in 0.0 W/m2
00:34 39.8 °F 26.2 °F 29.88 in NNW 6.9 mph 6.9 mph 58% 0.00 in 0.0 W/m2
00:39 39.8 °F 25.8 °F 29.88 in NNW 6.9 mph 6.9 mph 57% 0.00 in 0.0 W/m2
00:44 39.7 °F 25.7 °F 29.88 in NNW 7.0 mph 7.0 mph 57% 0.00 in 0.0 W/m2
00:49 39.8 °F 25.8 °F 29.88 in NW 6.9 mph 6.9 mph 57% 0.00 in 0.0 W/m2
00:54 39.8 °F 25.8 °F 29.88 in NNW 6.9 mph 6.9 mph 57% 0.00 in 0.0 W/m2
00:59 39.8 °F 25.8 °F 29.88 in WNW 10.4 mph 10.4 mph 57% 0.00 in 0.0 W/m2
01:04 40.0 °F 25.6 °F 29.88 in NNW 11.5 mph 11.5 mph 56% 0.00 in 0.0 W/m2
01:09 40.2 °F 25.7 °F 29.88 in NW 6.9 mph 6.9 mph 56% 0.00 in 0.0 W/m2
01:14 40.4 °F 25.5 °F 29.88 in North 11.5 mph 11.5 mph 55% 0.00 in 0.0 W/m2
01:19 40.5 °F 25.6 °F 29.88 in WNW 11.5 mph 11.5 mph 55% 0.00 in 0.0 W/m2
01:24 40.5 °F 25.6 °F 29.88 in NW 11.5 mph 11.5 mph 55% 0.00 in 0.0 W/m2
01:29 40.4 °F 25.5 °F 29.88 in NW 9.2 mph 9.2 mph 55% 0.00 in 0.0 W/m2
01:34 40.4 °F 25.5 °F 29.88 in NNW 11.5 mph 11.5 mph 55% 0.00 in 0.0 W/m2
01:44 40.5 °F 25.1 °F 29.87 in NNW 11.5 mph 11.5 mph 54% 0.00 in 0.0 W/m2
01:54 40.4 °F 25.5 °F 29.87 in North 6.0 mph 6.0 mph 55% 0.00 in 0.0 W/m2
01:59 40.4 °F 25.1 °F 29.87 in North 12.7 mph 12.7 mph 54% 0.00 in 0.0 W/m2
02:04 40.6 °F 25.2 °F 29.87 in NNW 8.1 mph 8.1 mph 54% 0.00 in 0.0 W/m2
02:14 40.6 °F 24.8 °F 29.86 in NNW 11.5 mph 11.5 mph 53% 0.00 in 0.0 W/m2
02:19 40.8 °F 25.0 °F 29.86 in NNW 13.8 mph 13.8 mph 53% 0.00 in 0.0 W/m2
02:29 40.8 °F 25.0 °F 29.85 in NNW 11.5 mph 11.5 mph 53% 0.00 in 0.0 W/m2
02:34 40.7 °F 24.9 °F 29.86 in NW 13.0 mph 13.0 mph 53% 0.00 in 0.0 W/m2
02:44 40.8 °F 25.0 °F 29.86 in NNW 8.1 mph 8.1 mph 53% 0.00 in 0.0 W/m2
02:49 40.9 °F 24.6 °F 29.86 in WNW 11.5 mph 11.5 mph 52% 0.00 in 0.0 W/m2
03:04 41.2 °F 24.4 °F 29.86 in North 17.3 mph 17.3 mph 51% 0.00 in 0.0 W/m2
03:14 41.2 °F 23.9 °F 29.85 in NNW 15.0 mph 15.0 mph 50% 0.00 in 0.0 W/m2
03:24 41.2 °F 23.9 °F 29.85 in NW 12.7 mph 12.7 mph 50% 0.00 in 0.0 W/m2
03:34 41.2 °F 23.9 °F 29.84 in NW 10.4 mph 10.4 mph 50% 0.00 in 0.0 W/m2
03:49 41.0 °F 23.8 °F 29.83 in NNW 12.0 mph 12.0 mph 50% 0.00 in 0.0 W/m2
03:54 41.0 °F 23.8 °F 29.83 in North 9.2 mph 9.2 mph 50% 0.00 in 0.0 W/m2
04:14 41.2 °F 23.9 °F 29.83 in North 12.7 mph 12.7 mph 50% 0.00 in 0.0 W/m2
04:19 41.5 °F 23.7 °F 29.83 in NNW 19.6 mph 19.6 mph 49% 0.00 in 0.0 W/m2
04:29 41.5 °F 23.7 °F 29.82 in NNW 13.8 mph 13.8 mph 49% 0.00 in 0.0 W/m2
04:34 41.5 °F 23.7 °F 29.82 in NW 12.7 mph 12.7 mph 49% 0.00 in 0.0 W/m2
04:39 41.6 °F 23.3 °F 29.82 in NNW 13.8 mph 13.8 mph 48% 0.00 in 0.0 W/m2
04:44 41.7 °F 23.4 °F 29.82 in NNW 17.3 mph 17.3 mph 48% 0.00 in 0.0 W/m2
04:49 41.7 °F 23.4 °F 29.82 in WNW 10.4 mph 10.4 mph 48% 0.00 in 0.0 W/m2
04:54 41.8 °F 23.5 °F 29.82 in NW 11.5 mph 11.5 mph 48% 0.00 in 0.0 W/m2
04:59 41.8 °F 23.0 °F 29.82 in NNW 17.3 mph 17.3 mph 47% 0.00 in 0.0 W/m2
05:09 42.1 °F 23.3 °F 29.82 in NNW 12.7 mph 12.7 mph 47% 0.00 in 0.0 W/m2
05:19 42.0 °F 23.2 °F 29.82 in West 10.4 mph 10.4 mph 47% 0.00 in 0.0 W/m2
05:34 42.3 °F 23.0 °F 29.81 in NNW 16.1 mph 16.1 mph 46% 0.00 in 0.0 W/m2
05:39 42.3 °F 23.5 °F 29.81 in NNW 12.7 mph 12.7 mph 47% 0.00 in 0.0 W/m2
05:44 42.2 °F 23.4 °F 29.81 in North 16.1 mph 16.1 mph 47% 0.00 in 0.0 W/m2
05:54 42.2 °F 23.4 °F 29.81 in North 16.1 mph 16.1 mph 47% 0.00 in 0.0 W/m2
06:04 42.3 °F 23.5 °F 29.81 in NW 16.1 mph 16.1 mph 47% 0.00 in 0.0 W/m2
06:14 42.5 °F 23.7 °F 29.80 in NNW 15.0 mph 15.0 mph 47% 0.00 in 0.0 W/m2
06:19 42.5 °F 23.2 °F 29.81 in NNW 15.0 mph 15.0 mph 46% 0.00 in 0.0 W/m2
06:29 42.5 °F 23.2 °F 29.81 in NNW 12.7 mph 12.7 mph 46% 0.00 in 0.0 W/m2
06:39 42.3 °F 23.5 °F 29.80 in North 13.0 mph 13.0 mph 47% 0.00 in 0.0 W/m2
06:44 42.3 °F 23.5 °F 29.80 in NW 16.1 mph 16.1 mph 47% 0.00 in 0.0 W/m2
06:54 42.5 °F 23.7 °F 29.80 in WNW 11.5 mph 11.5 mph 47% 0.00 in 0.0 W/m2
06:59 42.4 °F 23.6 °F 29.80 in WNW 11.5 mph 11.5 mph 47% 0.00 in 0.0 W/m2
07:04 42.3 °F 23.5 °F 29.80 in WNW 16.1 mph 16.1 mph 47% 0.00 in 0.0 W/m2
07:09 42.3 °F 23.5 °F 29.80 in NNW 15.0 mph 15.0 mph 47% 0.00 in 0.0 W/m2
07:14 42.2 °F 23.4 °F 29.79 in NNW 18.4 mph 18.4 mph 47% 0.00 in 0.0 W/m2
07:19 42.3 °F 23.5 °F 29.79 in WNW 16.1 mph 16.1 mph 47% 0.00 in 0.0 W/m2
07:24 42.2 °F 23.4 °F 29.79 in NW 11.5 mph 11.5 mph 47% 0.00 in 0.0 W/m2
07:29 42.2 °F 23.4 °F 29.79 in North 12.0 mph 12.0 mph 47% 0.00 in 0.0 W/m2
07:34 42.2 °F 23.4 °F 29.79 in NNW 9.2 mph 9.2 mph 47% 0.00 in 0.0 W/m2
07:49 42.3 °F 23.5 °F 29.78 in North 11.5 mph 11.5 mph 47% 0.00 in 0.0 W/m2
07:54 42.4 °F 23.6 °F 29.78 in North 13.8 mph 13.8 mph 47% 0.00 in 0.0 W/m2
08:04 42.7 °F 23.8 °F 29.78 in WNW 15.0 mph 15.0 mph 47% 0.00 in 0.0 W/m2
08:15 43.0 °F 23.6 °F 29.78 in NNW 11.5 mph 11.5 mph 46% 0.00 in 0.0 W/m2
08:20 43.3 °F 23.9 °F 29.78 in NW 11.5 mph 11.5 mph 46% 0.00 in 0.0 W/m2
08:25 43.5 °F 24.1 °F 29.78 in NW 11.0 mph 11.1 mph 46% 0.00 in 0.0 W/m2
08:35 43.8 °F 24.3 °F 29.77 in NNW 7.0 mph 15.0 mph 46% 0.00 in 0.0 W/m2
08:40 44.1 °F 24.1 °F 29.77 in North 19.6 mph 19.6 mph 45% 0.00 in 0.0 W/m2
08:45 44.3 °F 24.3 °F 29.77 in NW 7.0 mph 14.0 mph 45% 0.00 in 0.0 W/m2
08:50 44.5 °F 24.5 °F 29.77 in NW 15.0 mph 15.0 mph 45% 0.00 in 0.0 W/m2
08:55 44.7 °F 24.1 °F 29.77 in NNW 13.8 mph 13.8 mph 44% 0.00 in 0.0 W/m2
09:10 45.4 °F 24.7 °F 29.77 in NNW 13.8 mph 13.8 mph 44% 0.00 in 0.0 W/m2
09:15 45.6 °F 24.9 °F 29.76 in North 15.0 mph 15.0 mph 44% 0.00 in 0.0 W/m2
09:20 45.8 °F 24.5 °F 29.76 in NNW 18.4 mph 18.4 mph 43% 0.00 in 0.0 W/m2
09:25 46.0 °F 24.7 °F 29.76 in North 12.7 mph 12.7 mph 43% 0.00 in 0.0 W/m2
09:30 46.3 °F 25.0 °F 29.76 in West 11.5 mph 11.5 mph 43% 0.00 in 0.0 W/m2
09:35 46.5 °F 25.2 °F 29.75 in NE 13.8 mph 13.8 mph 43% 0.00 in 0.0 W/m2
09:45 46.9 °F 25.0 °F 29.75 in NW 10.0 mph 18.0 mph 42% 0.00 in 0.0 W/m2
09:50 47.0 °F 25.6 °F 29.76 in NW 8.0 mph 25.0 mph 43% 0.00 in 0.0 W/m2
10:00 47.6 °F 25.6 °F 29.76 in NNW 12.7 mph 12.7 mph 42% 0.00 in 0.0 W/m2
10:05 47.7 °F 25.7 °F 29.76 in NNW 14.0 mph 21.0 mph 42% 0.00 in 0.0 W/m2
10:10 48.1 °F 26.1 °F 29.75 in NNW 16.1 mph 16.1 mph 42% 0.00 in 0.0 W/m2
10:15 48.4 °F 26.3 °F 29.75 in NNW 16.1 mph 16.1 mph 42% 0.00 in 0.0 W/m2
10:20 48.7 °F 26.6 °F 29.76 in NNW 15.0 mph 15.0 mph 42% 0.00 in 0.0 W/m2
10:30 48.8 °F 26.1 °F 29.76 in North 19.6 mph 19.6 mph 41% 0.00 in 0.0 W/m2
10:35 49.2 °F 25.9 °F 29.76 in NNW 17.0 mph 17.0 mph 40% 0.00 in 0.0 W/m2
10:40 49.4 °F 26.1 °F 29.76 in NNW 20.7 mph 20.7 mph 40% 0.00 in 0.0 W/m2
10:45 49.4 °F 26.1 °F 29.76 in North 20.7 mph 20.7 mph 40% 0.00 in 0.0 W/m2
10:50 49.7 °F 26.3 °F 29.76 in NNW 19.6 mph 19.6 mph 40% 0.00 in 0.0 W/m2
10:55 49.8 °F 26.4 °F 29.76 in WNW 15.0 mph 15.0 mph 40% 0.00 in 0.0 W/m2
11:00 49.9 °F 26.5 °F 29.76 in North 19.6 mph 19.6 mph 40% 0.00 in 0.0 W/m2
11:05 50.4 °F 27.6 °F 29.76 in NW 12.7 mph 12.7 mph 41% 0.00 in 0.0 W/m2
11:10 50.6 °F 27.1 °F 29.76 in WNW 25.3 mph 25.3 mph 40% 0.00 in 0.0 W/m2
11:15 50.9 °F 26.8 °F 29.75 in NNW 12.0 mph 21.0 mph 39% 0.00 in 0.0 W/m2
11:20 51.3 °F 27.2 °F 29.75 in North 15.0 mph 15.0 mph 39% 0.00 in 0.0 W/m2
11:25 51.7 °F 26.9 °F 29.75 in NNW 24.2 mph 24.2 mph 38% 0.00 in 0.0 W/m2
11:30 51.8 °F 27.0 °F 29.75 in NNW 20.7 mph 20.7 mph 38% 0.00 in 0.0 W/m2
11:35 52.1 °F 27.2 °F 29.74 in WNW 18.4 mph 18.4 mph 38% 0.00 in 0.0 W/m2
11:40 52.2 °F 26.7 °F 29.74 in NW 19.6 mph 19.6 mph 37% 0.00 in 0.0 W/m2
11:45 52.4 °F 26.9 °F 29.74 in NNW 13.0 mph 27.0 mph 37% 0.00 in 0.0 W/m2
11:50 52.6 °F 27.0 °F 29.74 in NW 19.6 mph 19.6 mph 37% 0.00 in 0.0 W/m2
12:00 53.5 °F 26.5 °F 29.74 in North 19.6 mph 19.6 mph 35% 0.00 in 0.0 W/m2
12:05 53.5 °F 27.2 °F 29.73 in NNW 13.8 mph 13.8 mph 36% 0.00 in 0.0 W/m2
12:10 53.6 °F 27.3 °F 29.73 in NNW 14.0 mph 14.0 mph 36% 0.00 in 0.0 W/m2
12:15 53.8 °F 27.4 °F 29.73 in NW 18.0 mph 18.0 mph 36% 0.00 in 0.0 W/m2
west seneca weather
Compliments of Weather Underground - 2 mb